Terminal Aerodrome Forecast
Issued by NWS Memphis, TN

Home | Current Version | Previous Version | Text Only | Print | Product List | Glossary On
Versions: 1 2 3 4 5 6 7 8 9 10 11 12 13 14 15 16
968
FTUS44 KMEG 201241 AAA
TAFMKL
TAF AMD
KMKL 201241Z 2013/2112 00000KT 6SM BR SCT250
     FM201600 15006KT P6SM BKN250
     FM210000 VRB03KT P6SM BKN250=

USA.gov is the U.S. government's official web portal to all federal, state and local government web resources and services.